DLH2PR EDDM-LYTV
Flight info
| Callsign | DLH2PR |
|---|---|
| Flight time | 1h 34m |
| Altitude | 37000 |
| Route | VAVOR3E/08R VAVOR M867 RADIZ DCT GIMIX DCT SABAD DCT NERRA DCT DBK DCT TAZ |
| Aircraft | A319/M-SDE3FGHIRWY/LB1 |
Departure
| Time | 2026-05-01 12:24 |
|---|---|
| Airport | Munich Airport (EDDM) |
Arrival
| Time | 2026-05-01 13:58 |
|---|---|
| Airport | Tivat Airport (LYTV) |
| Time | Latitude | Longitude | Altitude | Speed | Heading |
|---|---|---|---|---|---|
| 2026-05-01 11:31 | 48.35582 | 11.79717 | 1485 ft | 0 kts | 83° |
| 2026-05-01 12:02 | 48.35581 | 11.79703 | 1485 ft | 3 kts | 83° |
| 2026-05-01 12:02 | 48.35578 | 11.79669 | 1479 ft | 3 kts | 83° |
| 2026-05-01 12:02 | 48.35576 | 11.79637 | 1479 ft | 2 kts | 83° |
| 2026-05-01 12:02 | 48.35573 | 11.79608 | 1471 ft | 3 kts | 71° |
| 2026-05-01 12:03 | 48.35563 | 11.79581 | 1471 ft | 3 kts | 33° |
| 2026-05-01 12:03 | 48.35545 | 11.79574 | 1477 ft | 3 kts | 353° |
| 2026-05-01 12:03 | 48.35531 | 11.79577 | 1481 ft | 0 kts | 353° |
| 2026-05-01 12:08 | 48.35535 | 11.79575 | 1480 ft | 1 kts | 345° |
| 2026-05-01 12:08 | 48.35547 | 11.79555 | 1473 ft | 2 kts | 304° |
| 2026-05-01 12:08 | 48.35545 | 11.79520 | 1475 ft | 5 kts | 245° |
| 2026-05-01 12:09 | 48.35504 | 11.79513 | 1485 ft | 8 kts | 171° |
| 2026-05-01 12:09 | 48.35441 | 11.79524 | 1480 ft | 10 kts | 173° |
| 2026-05-01 12:09 | 48.35369 | 11.79536 | 1485 ft | 10 kts | 174° |
| 2026-05-01 12:09 | 48.35299 | 11.79548 | 1475 ft | 10 kts | 173° |
| 2026-05-01 12:10 | 48.35230 | 11.79559 | 1481 ft | 10 kts | 172° |
| 2026-05-01 12:10 | 48.35102 | 11.79583 | 1485 ft | 8 kts | 174° |
| 2026-05-01 12:10 | 48.35043 | 11.79592 | 1485 ft | 8 kts | 173° |
| 2026-05-01 12:11 | 48.34998 | 11.79582 | 1478 ft | 2 kts | 208° |
| 2026-05-01 12:11 | 48.34984 | 11.79569 | 1481 ft | 3 kts | 212° |
| 2026-05-01 12:11 | 48.34968 | 11.79554 | 1478 ft | 3 kts | 208° |
| 2026-05-01 12:12 | 48.34944 | 11.79543 | 1482 ft | 5 kts | 190° |
| 2026-05-01 12:12 | 48.34916 | 11.79546 | 1473 ft | 4 kts | 173° |
| 2026-05-01 12:12 | 48.34872 | 11.79554 | 1479 ft | 9 kts | 174° |
| 2026-05-01 12:12 | 48.34807 | 11.79548 | 1485 ft | 9 kts | 207° |
| 2026-05-01 12:13 | 48.34782 | 11.79439 | 1480 ft | 14 kts | 262° |
| 2026-05-01 12:13 | 48.34769 | 11.79270 | 1485 ft | 19 kts | 264° |
| 2026-05-01 12:13 | 48.34753 | 11.79063 | 1485 ft | 21 kts | 263° |
| 2026-05-01 12:13 | 48.34737 | 11.78847 | 1477 ft | 21 kts | 264° |
| 2026-05-01 12:14 | 48.34721 | 11.78635 | 1478 ft | 20 kts | 261° |
| 2026-05-01 12:14 | 48.34705 | 11.78429 | 1485 ft | 20 kts | 264° |
| 2026-05-01 12:14 | 48.34694 | 11.78230 | 1473 ft | 19 kts | 262° |
| 2026-05-01 12:14 | 48.34674 | 11.78041 | 1485 ft | 18 kts | 263° |
| 2026-05-01 12:15 | 48.34660 | 11.77857 | 1485 ft | 17 kts | 263° |
| 2026-05-01 12:15 | 48.34647 | 11.77678 | 1485 ft | 17 kts | 264° |
| 2026-05-01 12:15 | 48.34634 | 11.77503 | 1480 ft | 16 kts | 262° |
| 2026-05-01 12:15 | 48.34619 | 11.77335 | 1485 ft | 16 kts | 263° |
| 2026-05-01 12:16 | 48.34607 | 11.77170 | 1478 ft | 16 kts | 264° |
| 2026-05-01 12:16 | 48.34595 | 11.77010 | 1478 ft | 15 kts | 263° |
| 2026-05-01 12:16 | 48.34583 | 11.76857 | 1482 ft | 15 kts | 263° |
| 2026-05-01 12:16 | 48.34571 | 11.76704 | 1485 ft | 14 kts | 263° |
| 2026-05-01 12:17 | 48.34560 | 11.76557 | 1485 ft | 14 kts | 263° |
| 2026-05-01 12:17 | 48.34549 | 11.76413 | 1481 ft | 14 kts | 263° |
| 2026-05-01 12:17 | 48.34539 | 11.76273 | 1485 ft | 13 kts | 264° |
| 2026-05-01 12:17 | 48.34527 | 11.76138 | 1485 ft | 13 kts | 258° |
| 2026-05-01 12:18 | 48.34517 | 11.76005 | 1485 ft | 13 kts | 264° |
| 2026-05-01 12:18 | 48.34508 | 11.75876 | 1477 ft | 12 kts | 263° |
| 2026-05-01 12:18 | 48.34498 | 11.75748 | 1485 ft | 13 kts | 263° |
| 2026-05-01 12:18 | 48.34486 | 11.75599 | 1485 ft | 16 kts | 263° |
| 2026-05-01 12:19 | 48.34473 | 11.75425 | 1485 ft | 18 kts | 263° |
| 2026-05-01 12:19 | 48.34457 | 11.75239 | 1485 ft | 15 kts | 263° |
| 2026-05-01 12:19 | 48.34444 | 11.75101 | 1481 ft | 13 kts | 253° |
| 2026-05-01 12:19 | 48.34373 | 11.75067 | 1485 ft | 13 kts | 171° |
| 2026-05-01 12:20 | 48.34282 | 11.75083 | 1480 ft | 11 kts | 172° |
| 2026-05-01 12:20 | 48.34235 | 11.75092 | 1479 ft | 3 kts | 173° |
| 2026-05-01 12:20 | 48.34207 | 11.75097 | 1485 ft | 5 kts | 173° |
| 2026-05-01 12:20 | 48.34191 | 11.75101 | 1475 ft | 0 kts | 170° |
| 2026-05-01 12:21 | 48.34182 | 11.75104 | 1479 ft | 5 kts | 168° |
| 2026-05-01 12:21 | 48.34125 | 11.75146 | 1479 ft | 13 kts | 136° |
| 2026-05-01 12:21 | 48.34085 | 11.75270 | 1485 ft | 13 kts | 102° |
| 2026-05-01 12:22 | 48.34085 | 11.75326 | 1485 ft | 0 kts | 84° |
| 2026-05-01 12:23 | 48.34087 | 11.75347 | 1485 ft | 13 kts | 84° |
| 2026-05-01 12:23 | 48.34127 | 11.75873 | 1485 ft | 84 kts | 83° |
| 2026-05-01 12:23 | 48.34217 | 11.77045 | 1486 ft | 139 kts | 83° |
| 2026-05-01 12:23 | 48.34347 | 11.78690 | 1628 ft | 169 kts | 84° |
| 2026-05-01 12:24 | 48.34479 | 11.80429 | 2342 ft | 165 kts | 84° |
| 2026-05-01 12:24 | 48.34599 | 11.82133 | 3070 ft | 167 kts | 85° |
| 2026-05-01 12:24 | 48.34719 | 11.83933 | 3548 ft | 179 kts | 85° |
| 2026-05-01 12:24 | 48.34853 | 11.85843 | 4080 ft | 190 kts | 86° |
| 2026-05-01 12:25 | 48.34988 | 11.87960 | 4354 ft | 220 kts | 85° |
| 2026-05-01 12:25 | 48.35332 | 11.92833 | 5845 ft | 238 kts | 86° |
| 2026-05-01 12:25 | 48.35245 | 11.95299 | 6809 ft | 237 kts | 109° |
| 2026-05-01 12:26 | 48.34351 | 11.97391 | 7423 ft | 246 kts | 132° |
| 2026-05-01 12:26 | 48.31663 | 12.00449 | 7693 ft | 250 kts | 147° |
| 2026-05-01 12:26 | 48.30160 | 12.01770 | 8581 ft | 251 kts | 151° |
| 2026-05-01 12:27 | 48.28483 | 12.02592 | 9468 ft | 258 kts | 167° |
| 2026-05-01 12:27 | 48.24653 | 12.02618 | 10509 ft | 293 kts | 179° |
| 2026-05-01 12:28 | 48.20518 | 12.02305 | 11915 ft | 304 kts | 180° |
| 2026-05-01 12:28 | 48.18386 | 12.02158 | 12264 ft | 309 kts | 179° |
| 2026-05-01 12:28 | 48.14101 | 12.02447 | 13110 ft | 310 kts | 162° |
| 2026-05-01 12:29 | 48.12063 | 12.03521 | 13858 ft | 311 kts | 153° |
| 2026-05-01 12:29 | 48.10067 | 12.04807 | 14527 ft | 315 kts | 153° |
| 2026-05-01 12:29 | 48.05999 | 12.07416 | 15888 ft | 321 kts | 153° |
| 2026-05-01 12:30 | 48.01887 | 12.10047 | 17219 ft | 326 kts | 152° |
| 2026-05-01 12:30 | 47.99797 | 12.11383 | 17869 ft | 329 kts | 152° |
| 2026-05-01 12:30 | 47.97676 | 12.12740 | 18526 ft | 333 kts | 152° |
| 2026-05-01 12:31 | 47.95540 | 12.14108 | 19097 ft | 336 kts | 152° |
| 2026-05-01 12:31 | 47.93447 | 12.15653 | 19654 ft | 335 kts | 143° |
| 2026-05-01 12:31 | 47.91555 | 12.17756 | 19877 ft | 347 kts | 135° |
| 2026-05-01 12:31 | 47.89677 | 12.20141 | 20007 ft | 364 kts | 135° |
| 2026-05-01 12:32 | 47.87731 | 12.22616 | 20135 ft | 380 kts | 135° |
| 2026-05-01 12:32 | 47.83565 | 12.27880 | 20692 ft | 401 kts | 136° |
| 2026-05-01 12:32 | 47.81418 | 12.30567 | 21178 ft | 405 kts | 136° |
| 2026-05-01 12:33 | 47.79247 | 12.33274 | 21665 ft | 409 kts | 136° |
| 2026-05-01 12:33 | 47.77054 | 12.36004 | 22156 ft | 412 kts | 136° |
| 2026-05-01 12:33 | 47.74846 | 12.38757 | 22623 ft | 416 kts | 136° |
| 2026-05-01 12:33 | 47.72619 | 12.41535 | 23112 ft | 419 kts | 136° |
| 2026-05-01 12:34 | 47.70406 | 12.44289 | 23549 ft | 423 kts | 136° |
| 2026-05-01 12:34 | 47.68138 | 12.47096 | 23998 ft | 426 kts | 136° |
| 2026-05-01 12:34 | 47.65848 | 12.49916 | 24361 ft | 429 kts | 136° |
| 2026-05-01 12:34 | 47.63545 | 12.52745 | 24738 ft | 432 kts | 136° |
| 2026-05-01 12:35 | 47.61201 | 12.55563 | 25110 ft | 435 kts | 138° |
| 2026-05-01 12:35 | 47.58793 | 12.58293 | 25462 ft | 437 kts | 139° |
| 2026-05-01 12:35 | 47.56327 | 12.60967 | 25818 ft | 441 kts | 140° |
| 2026-05-01 12:35 | 47.53823 | 12.63619 | 26211 ft | 443 kts | 140° |
| 2026-05-01 12:36 | 47.51310 | 12.66274 | 26522 ft | 446 kts | 140° |
| 2026-05-01 12:36 | 47.48820 | 12.68924 | 26847 ft | 448 kts | 140° |
| 2026-05-01 12:36 | 47.46285 | 12.71645 | 27196 ft | 450 kts | 140° |
| 2026-05-01 12:36 | 47.43753 | 12.74383 | 27514 ft | 453 kts | 139° |
| 2026-05-01 12:37 | 47.41206 | 12.77149 | 27849 ft | 456 kts | 139° |
| 2026-05-01 12:37 | 47.38647 | 12.79930 | 28179 ft | 458 kts | 139° |
| 2026-05-01 12:37 | 47.36077 | 12.82721 | 28498 ft | 460 kts | 139° |
| 2026-05-01 12:37 | 47.33487 | 12.85524 | 28784 ft | 462 kts | 140° |
| 2026-05-01 12:38 | 47.30885 | 12.88329 | 29091 ft | 465 kts | 140° |
| 2026-05-01 12:38 | 47.28264 | 12.91150 | 29327 ft | 468 kts | 140° |
| 2026-05-01 12:38 | 47.25668 | 12.93935 | 29677 ft | 470 kts | 139° |
| 2026-05-01 12:38 | 47.23016 | 12.96779 | 29974 ft | 472 kts | 139° |
| 2026-05-01 12:39 | 47.20370 | 12.99614 | 30372 ft | 472 kts | 139° |
| 2026-05-01 12:39 | 47.17719 | 13.02451 | 30746 ft | 470 kts | 139° |
| 2026-05-01 12:39 | 47.15078 | 13.05281 | 31108 ft | 469 kts | 139° |
| 2026-05-01 12:39 | 47.12439 | 13.08100 | 31498 ft | 468 kts | 139° |
| 2026-05-01 12:40 | 47.09809 | 13.10905 | 31871 ft | 467 kts | 139° |
| 2026-05-01 12:40 | 47.07179 | 13.13705 | 32251 ft | 466 kts | 139° |
| 2026-05-01 12:40 | 47.04601 | 13.16448 | 32655 ft | 465 kts | 139° |
| 2026-05-01 12:40 | 47.01983 | 13.19231 | 33062 ft | 463 kts | 139° |
| 2026-05-01 12:41 | 46.99379 | 13.21994 | 33440 ft | 462 kts | 139° |
| 2026-05-01 12:41 | 46.96781 | 13.24749 | 33858 ft | 461 kts | 139° |
| 2026-05-01 12:41 | 46.94190 | 13.27494 | 34209 ft | 459 kts | 138° |
| 2026-05-01 12:41 | 46.91602 | 13.30235 | 34512 ft | 459 kts | 138° |
| 2026-05-01 12:42 | 46.89016 | 13.32969 | 34764 ft | 458 kts | 138° |
| 2026-05-01 12:42 | 46.86430 | 13.35692 | 35013 ft | 458 kts | 139° |
| 2026-05-01 12:42 | 46.83852 | 13.38408 | 35319 ft | 457 kts | 139° |
| 2026-05-01 12:42 | 46.81341 | 13.41050 | 36051 ft | 443 kts | 139° |
| 2026-05-01 12:43 | 46.78861 | 13.43655 | 36684 ft | 436 kts | 139° |
| 2026-05-01 12:43 | 46.76415 | 13.46229 | 37103 ft | 433 kts | 139° |
| 2026-05-01 12:43 | 46.73971 | 13.48800 | 37289 ft | 433 kts | 139° |
| 2026-05-01 12:43 | 46.71526 | 13.51366 | 37363 ft | 433 kts | 138° |
| 2026-05-01 12:44 | 46.66643 | 13.56482 | 37322 ft | 433 kts | 139° |
| 2026-05-01 12:45 | 46.56865 | 13.66674 | 37328 ft | 432 kts | 139° |
| 2026-05-01 12:45 | 46.52000 | 13.71724 | 37340 ft | 433 kts | 139° |
| 2026-05-01 12:46 | 46.47192 | 13.76950 | 37340 ft | 431 kts | 137° |
| 2026-05-01 12:46 | 46.42473 | 13.82311 | 37371 ft | 431 kts | 136° |
| 2026-05-01 12:47 | 46.37743 | 13.87645 | 37346 ft | 432 kts | 136° |
| 2026-05-01 12:47 | 46.32966 | 13.92953 | 37341 ft | 432 kts | 136° |
| 2026-05-01 12:48 | 46.28216 | 13.98201 | 37338 ft | 433 kts | 136° |
| 2026-05-01 12:48 | 46.23423 | 14.03478 | 37329 ft | 433 kts | 136° |
| 2026-05-01 12:49 | 46.18630 | 14.08757 | 37378 ft | 434 kts | 136° |
| 2026-05-01 12:49 | 46.13828 | 14.14044 | 37355 ft | 434 kts | 136° |
| 2026-05-01 12:50 | 46.09026 | 14.19309 | 37344 ft | 434 kts | 136° |
| 2026-05-01 12:50 | 46.04250 | 14.24536 | 37333 ft | 435 kts | 136° |
| 2026-05-01 12:51 | 45.99432 | 14.29796 | 37340 ft | 434 kts | 136° |
| 2026-05-01 12:52 | 45.92216 | 14.37640 | 37379 ft | 433 kts | 136° |
| 2026-05-01 12:52 | 45.85032 | 14.45450 | 37358 ft | 431 kts | 136° |
| 2026-05-01 12:53 | 45.77892 | 14.53183 | 37351 ft | 430 kts | 136° |
| 2026-05-01 12:54 | 45.73113 | 14.58341 | 37346 ft | 430 kts | 136° |
| 2026-05-01 12:54 | 45.65943 | 14.66052 | 37359 ft | 430 kts | 136° |
| 2026-05-01 12:55 | 45.59573 | 14.72877 | 37361 ft | 430 kts | 136° |
| 2026-05-01 12:56 | 45.54785 | 14.77997 | 37351 ft | 430 kts | 136° |
| 2026-05-01 12:56 | 45.49993 | 14.83112 | 37347 ft | 430 kts | 136° |
| 2026-05-01 12:57 | 45.44431 | 14.89056 | 37339 ft | 430 kts | 135° |
| 2026-05-01 12:57 | 45.38159 | 14.95993 | 37355 ft | 429 kts | 134° |
| 2026-05-01 12:58 | 45.33461 | 15.01216 | 37354 ft | 429 kts | 135° |
| 2026-05-01 12:59 | 45.26380 | 15.08993 | 37345 ft | 429 kts | 135° |
| 2026-05-01 12:59 | 45.19320 | 15.16698 | 37335 ft | 429 kts | 135° |
| 2026-05-01 13:00 | 45.12230 | 15.24426 | 37347 ft | 429 kts | 135° |
| 2026-05-01 13:01 | 45.05135 | 15.32139 | 37337 ft | 429 kts | 135° |
| 2026-05-01 13:02 | 44.98031 | 15.39826 | 37330 ft | 429 kts | 135° |
| 2026-05-01 13:07 | 44.45648 | 15.95809 | 37319 ft | 433 kts | 136° |
| 2026-05-01 13:08 | 44.40832 | 16.00888 | 37296 ft | 434 kts | 137° |
| 2026-05-01 13:08 | 44.36012 | 16.05955 | 37270 ft | 434 kts | 137° |
| 2026-05-01 13:09 | 44.31163 | 16.11047 | 37263 ft | 436 kts | 137° |
| 2026-05-01 13:09 | 44.26302 | 16.16131 | 37265 ft | 437 kts | 137° |
| 2026-05-01 13:10 | 44.21479 | 16.21181 | 37277 ft | 437 kts | 138° |
| 2026-05-01 13:10 | 44.16619 | 16.26266 | 37273 ft | 437 kts | 138° |
| 2026-05-01 13:11 | 44.11766 | 16.31344 | 37265 ft | 437 kts | 139° |
| 2026-05-01 13:11 | 44.06897 | 16.36410 | 37263 ft | 437 kts | 138° |
| 2026-05-01 13:12 | 44.02028 | 16.41457 | 37254 ft | 437 kts | 139° |
| 2026-05-01 13:12 | 43.97153 | 16.46505 | 37264 ft | 437 kts | 140° |
| 2026-05-01 13:13 | 43.92312 | 16.51509 | 37258 ft | 437 kts | 140° |
| 2026-05-01 13:13 | 43.87430 | 16.56529 | 37251 ft | 437 kts | 140° |
| 2026-05-01 13:14 | 43.82541 | 16.61552 | 37251 ft | 437 kts | 140° |
| 2026-05-01 13:14 | 43.77654 | 16.66573 | 37246 ft | 437 kts | 140° |
| 2026-05-01 13:15 | 43.72802 | 16.71550 | 37237 ft | 438 kts | 140° |
| 2026-05-01 13:15 | 43.67908 | 16.76567 | 37224 ft | 439 kts | 140° |
| 2026-05-01 13:16 | 43.62985 | 16.81584 | 37223 ft | 440 kts | 140° |
| 2026-05-01 13:16 | 43.58058 | 16.86590 | 37215 ft | 440 kts | 140° |
| 2026-05-01 13:17 | 43.48217 | 16.96589 | 37202 ft | 442 kts | 140° |
| 2026-05-01 13:18 | 43.40786 | 17.04105 | 37024 ft | 441 kts | 141° |
| 2026-05-01 13:18 | 43.38314 | 17.06601 | 36484 ft | 440 kts | 141° |
| 2026-05-01 13:18 | 43.35846 | 17.09090 | 35958 ft | 439 kts | 141° |
| 2026-05-01 13:19 | 43.33385 | 17.11564 | 35447 ft | 438 kts | 141° |
| 2026-05-01 13:19 | 43.30927 | 17.14034 | 34949 ft | 437 kts | 141° |
| 2026-05-01 13:19 | 43.26046 | 17.18932 | 33843 ft | 437 kts | 140° |
| 2026-05-01 13:20 | 43.23593 | 17.21395 | 33234 ft | 436 kts | 140° |
| 2026-05-01 13:20 | 43.21131 | 17.23869 | 32435 ft | 439 kts | 140° |
| 2026-05-01 13:20 | 43.18699 | 17.26304 | 32300 ft | 426 kts | 140° |
| 2026-05-01 13:21 | 43.14012 | 17.30975 | 31745 ft | 410 kts | 139° |
| 2026-05-01 13:21 | 43.11716 | 17.33266 | 31455 ft | 407 kts | 139° |
| 2026-05-01 13:21 | 43.09434 | 17.35541 | 31202 ft | 405 kts | 139° |
| 2026-05-01 13:21 | 43.07191 | 17.37775 | 30968 ft | 403 kts | 139° |
| 2026-05-01 13:22 | 43.04929 | 17.40027 | 30743 ft | 402 kts | 140° |
| 2026-05-01 13:22 | 43.02675 | 17.42273 | 30499 ft | 401 kts | 140° |
| 2026-05-01 13:22 | 43.00427 | 17.44512 | 30256 ft | 399 kts | 139° |
| 2026-05-01 13:22 | 42.98189 | 17.46739 | 29966 ft | 397 kts | 140° |
| 2026-05-01 13:23 | 42.95961 | 17.48950 | 29667 ft | 395 kts | 140° |
| 2026-05-01 13:23 | 42.93749 | 17.51144 | 29379 ft | 392 kts | 139° |
| 2026-05-01 13:23 | 42.91679 | 17.53520 | 29103 ft | 387 kts | 131° |
| 2026-05-01 13:23 | 42.89857 | 17.56174 | 28813 ft | 381 kts | 125° |
| 2026-05-01 13:24 | 42.88279 | 17.59063 | 28211 ft | 382 kts | 119° |
| 2026-05-01 13:24 | 42.86832 | 17.62146 | 27542 ft | 385 kts | 118° |
| 2026-05-01 13:24 | 42.85431 | 17.65138 | 27385 ft | 374 kts | 118° |
| 2026-05-01 13:25 | 42.82672 | 17.71029 | 26642 ft | 366 kts | 118° |
| 2026-05-01 13:25 | 42.81307 | 17.73947 | 26183 ft | 363 kts | 119° |
| 2026-05-01 13:25 | 42.79954 | 17.76826 | 25543 ft | 360 kts | 119° |
| 2026-05-01 13:25 | 42.78602 | 17.79690 | 24911 ft | 357 kts | 119° |
| 2026-05-01 13:26 | 42.77263 | 17.82519 | 24316 ft | 354 kts | 120° |
| 2026-05-01 13:26 | 42.75935 | 17.85318 | 23729 ft | 351 kts | 119° |
| 2026-05-01 13:26 | 42.74614 | 17.88104 | 23039 ft | 349 kts | 120° |
| 2026-05-01 13:26 | 42.73304 | 17.90868 | 22492 ft | 346 kts | 119° |
| 2026-05-01 13:27 | 42.72003 | 17.93617 | 21943 ft | 344 kts | 120° |
| 2026-05-01 13:27 | 42.70730 | 17.96309 | 21433 ft | 342 kts | 120° |
| 2026-05-01 13:27 | 42.68159 | 18.01723 | 20390 ft | 338 kts | 119° |
| 2026-05-01 13:28 | 42.65624 | 18.07048 | 19387 ft | 333 kts | 119° |
| 2026-05-01 13:28 | 42.64367 | 18.09683 | 18901 ft | 331 kts | 119° |
| 2026-05-01 13:29 | 42.61877 | 18.14905 | 17868 ft | 327 kts | 119° |
| 2026-05-01 13:29 | 42.59397 | 18.20101 | 16801 ft | 330 kts | 119° |
| 2026-05-01 13:30 | 42.54297 | 18.30475 | 14536 ft | 329 kts | 121° |
| 2026-05-01 13:31 | 42.51656 | 18.35504 | 13297 ft | 324 kts | 117° |
| 2026-05-01 13:31 | 42.47250 | 18.42220 | 11414 ft | 320 kts | 135° |
| 2026-05-01 13:32 | 42.43958 | 18.46184 | 10224 ft | 313 kts | 135° |
| 2026-05-01 13:33 | 42.38803 | 18.51072 | 8996 ft | 285 kts | 145° |
| 2026-05-01 13:33 | 42.35446 | 18.53866 | 9005 ft | 283 kts | 145° |
| 2026-05-01 13:34 | 42.32191 | 18.56559 | 8736 ft | 266 kts | 145° |
| 2026-05-01 13:34 | 42.28962 | 18.58760 | 8233 ft | 262 kts | 154° |
| 2026-05-01 13:35 | 42.25527 | 18.60528 | 7717 ft | 261 kts | 155° |
| 2026-05-01 13:35 | 42.23854 | 18.61371 | 7468 ft | 260 kts | 155° |
| 2026-05-01 13:35 | 42.20469 | 18.63054 | 6965 ft | 258 kts | 155° |
| 2026-05-01 13:36 | 42.18795 | 18.63878 | 6712 ft | 253 kts | 155° |
| 2026-05-01 13:36 | 42.17178 | 18.64666 | 6458 ft | 248 kts | 155° |
| 2026-05-01 13:36 | 42.13970 | 18.66226 | 6028 ft | 244 kts | 155° |
| 2026-05-01 13:37 | 42.12379 | 18.67008 | 5998 ft | 244 kts | 155° |
| 2026-05-01 13:37 | 42.10871 | 18.67981 | 5994 ft | 237 kts | 135° |
| 2026-05-01 13:37 | 42.09947 | 18.69724 | 6001 ft | 226 kts | 104° |
| 2026-05-01 13:37 | 42.09592 | 18.71774 | 5997 ft | 224 kts | 96° |
| 2026-05-01 13:38 | 42.09095 | 18.75886 | 6000 ft | 224 kts | 95° |
| 2026-05-01 13:38 | 42.08859 | 18.77958 | 6009 ft | 224 kts | 95° |
| 2026-05-01 13:38 | 42.08620 | 18.80041 | 6006 ft | 226 kts | 95° |
| 2026-05-01 13:39 | 42.08513 | 18.82130 | 5989 ft | 222 kts | 77° |
| 2026-05-01 13:39 | 42.09138 | 18.83993 | 5786 ft | 220 kts | 51° |
| 2026-05-01 13:39 | 42.10362 | 18.85231 | 5167 ft | 225 kts | 21° |
| 2026-05-01 13:39 | 42.11931 | 18.85472 | 4541 ft | 234 kts | 352° |
| 2026-05-01 13:40 | 42.13498 | 18.84946 | 4145 ft | 229 kts | 347° |
| 2026-05-01 13:40 | 42.15034 | 18.84420 | 3722 ft | 227 kts | 348° |
| 2026-05-01 13:40 | 42.16517 | 18.83926 | 3451 ft | 220 kts | 348° |
| 2026-05-01 13:40 | 42.17980 | 18.83443 | 3251 ft | 211 kts | 348° |
| 2026-05-01 13:41 | 42.19394 | 18.82973 | 3149 ft | 209 kts | 347° |
| 2026-05-01 13:41 | 42.20767 | 18.82514 | 3119 ft | 196 kts | 347° |
| 2026-05-01 13:41 | 42.22064 | 18.82081 | 2982 ft | 189 kts | 347° |
| 2026-05-01 13:41 | 42.23330 | 18.81659 | 2898 ft | 186 kts | 347° |
| 2026-05-01 13:42 | 42.24571 | 18.81245 | 2817 ft | 180 kts | 346° |
| 2026-05-01 13:42 | 42.25754 | 18.80850 | 2742 ft | 170 kts | 346° |
| 2026-05-01 13:42 | 42.26843 | 18.80268 | 2691 ft | 171 kts | 332° |
| 2026-05-01 13:42 | 42.27734 | 18.79225 | 2652 ft | 172 kts | 316° |
| 2026-05-01 13:43 | 42.28581 | 18.78056 | 2517 ft | 175 kts | 319° |
| 2026-05-01 13:43 | 42.29415 | 18.76947 | 2540 ft | 163 kts | 318° |
| 2026-05-01 13:43 | 42.30243 | 18.75867 | 2339 ft | 165 kts | 317° |
| 2026-05-01 13:43 | 42.31065 | 18.74794 | 2133 ft | 165 kts | 317° |
| 2026-05-01 13:44 | 42.31920 | 18.73786 | 2023 ft | 161 kts | 319° |
| 2026-05-01 13:44 | 42.32779 | 18.72837 | 1885 ft | 158 kts | 318° |
| 2026-05-01 13:44 | 42.33606 | 18.71869 | 1675 ft | 158 kts | 313° |
| 2026-05-01 13:44 | 42.34435 | 18.70860 | 1606 ft | 161 kts | 313° |
| 2026-05-01 13:45 | 42.35307 | 18.69890 | 1512 ft | 164 kts | 322° |
| 2026-05-01 13:45 | 42.36305 | 18.69231 | 1507 ft | 161 kts | 334° |
| 2026-05-01 13:45 | 42.37361 | 18.68689 | 1457 ft | 164 kts | 335° |
| 2026-05-01 13:45 | 42.38426 | 18.68121 | 1421 ft | 164 kts | 336° |
| 2026-05-01 13:46 | 42.39507 | 18.67574 | 1330 ft | 170 kts | 336° |
| 2026-05-01 13:46 | 42.40633 | 18.67007 | 1241 ft | 169 kts | 336° |
| 2026-05-01 13:46 | 42.41754 | 18.66790 | 1062 ft | 163 kts | 15° |
| 2026-05-01 13:46 | 42.42480 | 18.67851 | 864 ft | 161 kts | 82° |
| 2026-05-01 13:47 | 42.42372 | 18.69345 | 683 ft | 162 kts | 104° |
| 2026-05-01 13:47 | 42.41832 | 18.70710 | 284 ft | 168 kts | 134° |
| 2026-05-01 13:47 | 42.40946 | 18.71732 | 385 ft | 174 kts | 141° |
| 2026-05-01 13:47 | 42.40004 | 18.72837 | 1052 ft | 189 kts | 140° |
| 2026-05-01 13:48 | 42.38955 | 18.74015 | 1780 ft | 202 kts | 143° |
| 2026-05-01 13:48 | 42.37815 | 18.75224 | 2363 ft | 217 kts | 140° |
| 2026-05-01 13:48 | 42.36416 | 18.76327 | 2771 ft | 249 kts | 153° |
| 2026-05-01 13:48 | 42.34708 | 18.77220 | 3229 ft | 276 kts | 157° |
| 2026-05-01 13:49 | 42.32926 | 18.78087 | 4331 ft | 258 kts | 157° |
| 2026-05-01 13:49 | 42.31321 | 18.78827 | 4734 ft | 234 kts | 158° |
| 2026-05-01 13:49 | 42.29800 | 18.79453 | 4976 ft | 228 kts | 159° |
| 2026-05-01 13:49 | 42.28278 | 18.80048 | 5056 ft | 228 kts | 159° |
| 2026-05-01 13:50 | 42.26767 | 18.80621 | 4913 ft | 229 kts | 160° |
| 2026-05-01 13:50 | 42.25242 | 18.81179 | 4622 ft | 226 kts | 161° |
| 2026-05-01 13:50 | 42.23734 | 18.81709 | 4345 ft | 223 kts | 163° |
| 2026-05-01 13:50 | 42.22358 | 18.82459 | 4328 ft | 203 kts | 143° |
| 2026-05-01 13:51 | 42.21486 | 18.83807 | 4281 ft | 188 kts | 106° |
| 2026-05-01 13:51 | 42.21536 | 18.85486 | 4001 ft | 182 kts | 58° |
| 2026-05-01 13:51 | 42.22549 | 18.86415 | 3629 ft | 185 kts | 5° |
| 2026-05-01 13:51 | 42.23765 | 18.85891 | 3311 ft | 190 kts | 326° |
| 2026-05-01 13:52 | 42.24772 | 18.84766 | 3115 ft | 188 kts | 316° |
| 2026-05-01 13:52 | 42.25625 | 18.83450 | 3064 ft | 181 kts | 309° |
| 2026-05-01 13:52 | 42.26378 | 18.82140 | 3022 ft | 176 kts | 311° |
| 2026-05-01 13:52 | 42.27127 | 18.80847 | 2990 ft | 174 kts | 312° |
| 2026-05-01 13:53 | 42.27874 | 18.79560 | 2905 ft | 174 kts | 312° |
| 2026-05-01 13:53 | 42.29341 | 18.76962 | 2741 ft | 172 kts | 310° |
| 2026-05-01 13:53 | 42.30051 | 18.75674 | 2624 ft | 171 kts | 311° |
| 2026-05-01 13:54 | 42.30739 | 18.74386 | 2511 ft | 165 kts | 310° |
| 2026-05-01 13:54 | 42.31433 | 18.73192 | 2338 ft | 161 kts | 314° |
| 2026-05-01 13:54 | 42.32155 | 18.72072 | 2195 ft | 156 kts | 313° |
| 2026-05-01 13:54 | 42.32889 | 18.70968 | 2033 ft | 161 kts | 311° |
| 2026-05-01 13:55 | 42.33648 | 18.69845 | 1850 ft | 159 kts | 310° |
| 2026-05-01 13:55 | 42.34410 | 18.68805 | 1681 ft | 153 kts | 313° |
| 2026-05-01 13:55 | 42.35216 | 18.67875 | 1540 ft | 152 kts | 321° |
| 2026-05-01 13:55 | 42.36156 | 18.67203 | 1500 ft | 158 kts | 339° |
| 2026-05-01 13:56 | 42.37267 | 18.66874 | 1444 ft | 168 kts | 343° |
| 2026-05-01 13:56 | 42.38401 | 18.66477 | 1320 ft | 169 kts | 341° |
| 2026-05-01 13:56 | 42.39515 | 18.66026 | 1318 ft | 170 kts | 339° |
| 2026-05-01 13:56 | 42.40661 | 18.65530 | 1168 ft | 173 kts | 338° |
| 2026-05-01 13:57 | 42.41820 | 18.65318 | 1184 ft | 168 kts | 5° |
| 2026-05-01 13:57 | 42.42555 | 18.65683 | 1095 ft | 173 kts | 32° |
| 2026-05-01 13:57 | 42.43273 | 18.67448 | 772 ft | 164 kts | 91° |
| 2026-05-01 13:57 | 42.42998 | 18.68911 | 565 ft | 158 kts | 117° |
| 2026-05-01 13:58 | 42.42366 | 18.70099 | 328 ft | 155 kts | 137° |
| 2026-05-01 13:58 | 42.41566 | 18.71042 | 138 ft | 152 kts | 140° |
| 2026-05-01 13:58 | 42.40801 | 18.71924 | 33 ft | 127 kts | 139° |
| 2026-05-01 13:58 | 42.40370 | 18.72448 | 35 ft | 40 kts | 139° |
| 2026-05-01 13:59 | 42.40299 | 18.72531 | 35 ft | 9 kts | 139° |
| 2026-05-01 13:59 | 42.40242 | 18.72608 | 36 ft | 11 kts | 121° |
| 2026-05-01 13:59 | 42.40211 | 18.72654 | 36 ft | 3 kts | 175° |
| 2026-05-01 13:59 | 42.40204 | 18.72633 | 35 ft | 3 kts | 274° |
| 2026-05-01 14:00 | 42.40231 | 18.72599 | 33 ft | 9 kts | 321° |
| 2026-05-01 14:00 | 42.40306 | 18.72514 | 32 ft | 19 kts | 319° |
| 2026-05-01 14:00 | 42.40431 | 18.72369 | 31 ft | 27 kts | 319° |
| 2026-05-01 14:00 | 42.40571 | 18.72204 | 30 ft | 27 kts | 319° |
| 2026-05-01 14:01 | 42.40712 | 18.72038 | 33 ft | 27 kts | 319° |
| 2026-05-01 14:01 | 42.40849 | 18.71876 | 34 ft | 24 kts | 319° |
| 2026-05-01 14:01 | 42.40931 | 18.71790 | 35 ft | 10 kts | 345° |
| 2026-05-01 14:01 | 42.40987 | 18.71836 | 35 ft | 9 kts | 48° |
| 2026-05-01 14:02 | 42.41037 | 18.71844 | 36 ft | 7 kts | 322° |
| 2026-05-01 14:02 | 42.41071 | 18.71799 | 35 ft | 6 kts | 318° |
| 2026-05-01 14:02 | 42.41108 | 18.71757 | 34 ft | 7 kts | 319° |
| 2026-05-01 14:02 | 42.41148 | 18.71710 | 34 ft | 8 kts | 317° |
| 2026-05-01 14:03 | 42.41190 | 18.71658 | 35 ft | 8 kts | 317° |
| 2026-05-01 14:03 | 42.41227 | 18.71612 | 36 ft | 6 kts | 317° |
| 2026-05-01 14:03 | 42.41254 | 18.71591 | 36 ft | 4 kts | 356° |
| 2026-05-01 14:03 | 42.41278 | 18.71631 | 34 ft | 6 kts | 69° |
| 2026-05-01 14:04 | 42.41267 | 18.71654 | 34 ft | 2 kts | 158° |
| 2026-05-01 14:04 | 42.41258 | 18.71654 | 34 ft | 1 kts | 185° |
| 2026-05-01 14:04 | 42.41251 | 18.71653 | 35 ft | 0 kts | 186° |
| 2026-05-01 14:05 | 42.41262 | 18.71646 | 34 ft | 0 kts | 162° |